sensor_id;sensor_type;location;lat;lon;timestamp;P1;durP1;ratioP1;P2;durP2;ratioP2
56519;SDS011;42420;53.586;10.052;2024-01-30T00:02:33;9.20;;;5.10;;
56519;SDS011;42420;53.586;10.052;2024-01-30T00:12:27;8.40;;;5.30;;
56519;SDS011;42420;53.586;10.052;2024-01-30T00:17:28;8.90;;;5.15;;
56519;SDS011;42420;53.586;10.052;2024-01-30T00:27:22;9.38;;;4.78;;
56519;SDS011;42420;53.586;10.052;2024-01-30T00:32:18;10.95;;;5.10;;
56519;SDS011;42420;53.586;10.052;2024-01-30T00:37:15;8.82;;;4.65;;
56519;SDS011;42420;53.586;10.052;2024-01-30T00:42:12;10.88;;;4.95;;
56519;SDS011;42420;53.586;10.052;2024-01-30T00:47:08;11.43;;;5.00;;
56519;SDS011;42420;53.586;10.052;2024-01-30T00:52:05;8.77;;;4.68;;
56519;SDS011;42420;53.586;10.052;2024-01-30T00:57:02;9.00;;;5.25;;
56519;SDS011;42420;53.586;10.052;2024-01-30T01:01:58;9.43;;;5.03;;
56519;SDS011;42420;53.586;10.052;2024-01-30T01:06:55;9.13;;;5.20;;
56519;SDS011;42420;53.586;10.052;2024-01-30T01:11:52;10.32;;;5.15;;
56519;SDS011;42420;53.586;10.052;2024-01-30T01:16:49;12.15;;;5.28;;
56519;SDS011;42420;53.586;10.052;2024-01-30T01:21:45;8.57;;;4.25;;
56519;SDS011;42420;53.586;10.052;2024-01-30T01:26:42;8.65;;;4.75;;
56519;SDS011;42420;53.586;10.052;2024-01-30T01:31:38;8.40;;;4.35;;
56519;SDS011;42420;53.586;10.052;2024-01-30T01:36:39;8.23;;;4.53;;
56519;SDS011;42420;53.586;10.052;2024-01-30T01:41:36;8.27;;;4.47;;
56519;SDS011;42420;53.586;10.052;2024-01-30T01:46:33;10.02;;;4.53;;
56519;SDS011;42420;53.586;10.052;2024-01-30T01:51:31;9.55;;;5.20;;
56519;SDS011;42420;53.586;10.052;2024-01-30T01:56:28;8.05;;;4.82;;
56519;SDS011;42420;53.586;10.052;2024-01-30T02:01:25;8.07;;;4.43;;
56519;SDS011;42420;53.586;10.052;2024-01-30T02:06:26;8.65;;;4.40;;
56519;SDS011;42420;53.586;10.052;2024-01-30T02:11:23;8.32;;;4.30;;
56519;SDS011;42420;53.586;10.052;2024-01-30T02:16:20;7.22;;;4.40;;
56519;SDS011;42420;53.586;10.052;2024-01-30T02:21:17;9.60;;;4.70;;
56519;SDS011;42420;53.586;10.052;2024-01-30T02:26:15;10.13;;;5.45;;
56519;SDS011;42420;53.586;10.052;2024-01-30T02:31:12;10.57;;;5.10;;
56519;SDS011;42420;53.586;10.052;2024-01-30T02:36:09;8.00;;;4.45;;
56519;SDS011;42420;53.586;10.052;2024-01-30T02:41:06;9.77;;;5.03;;
56519;SDS011;42420;53.586;10.052;2024-01-30T02:46:03;9.88;;;4.90;;
56519;SDS011;42420;53.586;10.052;2024-01-30T02:51:00;8.80;;;4.60;;
56519;SDS011;42420;53.586;10.052;2024-01-30T02:55:57;8.70;;;5.22;;
56519;SDS011;42420;53.586;10.052;2024-01-30T03:00:53;8.57;;;4.80;;
56519;SDS011;42420;53.586;10.052;2024-01-30T03:05:50;8.25;;;4.80;;
56519;SDS011;42420;53.586;10.052;2024-01-30T03:10:47;8.98;;;5.03;;
56519;SDS011;42420;53.586;10.052;2024-01-30T03:20:40;13.57;;;6.10;;
56519;SDS011;42420;53.586;10.052;2024-01-30T03:25:37;8.00;;;4.82;;
56519;SDS011;42420;53.586;10.052;2024-01-30T03:30:35;9.57;;;4.93;;
56519;SDS011;42420;53.586;10.052;2024-01-30T03:35:32;10.70;;;5.18;;
56519;SDS011;42420;53.586;10.052;2024-01-30T03:40:28;8.25;;;4.63;;
56519;SDS011;42420;53.586;10.052;2024-01-30T03:45:25;11.90;;;5.95;;
56519;SDS011;42420;53.586;10.052;2024-01-30T03:50:22;9.77;;;5.00;;
56519;SDS011;42420;53.586;10.052;2024-01-30T03:55:19;10.40;;;5.63;;
56519;SDS011;42420;53.586;10.052;2024-01-30T04:00:15;9.77;;;5.35;;
56519;SDS011;42420;53.586;10.052;2024-01-30T04:05:12;10.60;;;6.05;;
56519;SDS011;42420;53.586;10.052;2024-01-30T04:10:09;11.23;;;5.80;;
56519;SDS011;42420;53.586;10.052;2024-01-30T04:15:06;11.13;;;5.43;;
56519;SDS011;42420;53.586;10.052;2024-01-30T04:20:04;13.30;;;6.57;;
56519;SDS011;42420;53.586;10.052;2024-01-30T04:25:01;10.05;;;6.03;;
56519;SDS011;42420;53.586;10.052;2024-01-30T04:29:59;12.35;;;7.85;;
56519;SDS011;42420;53.586;10.052;2024-01-30T04:34:57;12.27;;;6.40;;
56519;SDS011;42420;53.586;10.052;2024-01-30T04:39:53;12.15;;;6.07;;
56519;SDS011;42420;53.586;10.052;2024-01-30T04:44:50;8.20;;;5.18;;
56519;SDS011;42420;53.586;10.052;2024-01-30T04:49:48;11.68;;;6.22;;
56519;SDS011;42420;53.586;10.052;2024-01-30T04:59:59;9.27;;;5.93;;
56519;SDS011;42420;53.586;10.052;2024-01-30T05:43:10;13.10;;;6.72;;
56519;SDS011;42420;53.586;10.052;2024-01-30T08:32:17;15.88;;;8.25;;
56519;SDS011;42420;53.586;10.052;2024-01-30T08:43:45;46.10;;;10.25;;
56519;SDS011;42420;53.586;10.052;2024-01-30T08:49:41;15.70;;;9.00;;
56519;SDS011;42420;53.586;10.052;2024-01-30T08:55:04;13.35;;;8.15;;
56519;SDS011;42420;53.586;10.052;2024-01-30T09:00:41;21.63;;;9.30;;
56519;SDS011;42420;53.586;10.052;2024-01-30T09:05:57;12.82;;;7.63;;
56519;SDS011;42420;53.586;10.052;2024-01-30T16:03:25;11.25;;;7.30;;
56519;SDS011;42420;53.586;10.052;2024-01-30T16:34:20;18.05;;;9.05;;
56519;SDS011;42420;53.586;10.052;2024-01-30T16:40:06;11.45;;;6.95;;
56519;SDS011;42420;53.586;10.052;2024-01-30T18:43:38;10.15;;;5.22;;
56519;SDS011;42420;53.586;10.052;2024-01-30T18:49:43;6.95;;;4.40;;
56519;SDS011;42420;53.586;10.052;2024-01-30T18:55:18;8.27;;;4.03;;
56519;SDS011;42420;53.586;10.052;2024-01-30T19:00:58;8.25;;;4.45;;
56519;SDS011;42420;53.586;10.052;2024-01-30T19:11:18;9.57;;;4.30;;
56519;SDS011;42420;53.586;10.052;2024-01-30T19:16:16;11.35;;;4.60;;
56519;SDS011;42420;53.586;10.052;2024-01-30T19:21:16;8.65;;;4.40;;
56519;SDS011;42420;53.586;10.052;2024-01-30T19:26:13;6.82;;;3.70;;
56519;SDS011;42420;53.586;10.052;2024-01-30T19:31:11;7.70;;;3.58;;
56519;SDS011;42420;53.586;10.052;2024-01-30T19:36:10;8.43;;;3.50;;
56519;SDS011;42420;53.586;10.052;2024-01-30T19:46:11;5.30;;;2.80;;
56519;SDS011;42420;53.586;10.052;2024-01-30T19:51:10;7.10;;;2.50;;
56519;SDS011;42420;53.586;10.052;2024-01-30T19:56:07;5.68;;;2.17;;
56519;SDS011;42420;53.586;10.052;2024-01-30T20:01:04;4.57;;;2.30;;
56519;SDS011;42420;53.586;10.052;2024-01-30T20:06:02;5.78;;;2.60;;
56519;SDS011;42420;53.586;10.052;2024-01-30T20:10:59;4.70;;;2.28;;
56519;SDS011;42420;53.586;10.052;2024-01-30T20:15:56;4.65;;;2.63;;
56519;SDS011;42420;53.586;10.052;2024-01-30T20:20:57;5.63;;;2.65;;
56519;SDS011;42420;53.586;10.052;2024-01-30T20:25:53;6.30;;;2.83;;
56519;SDS011;42420;53.586;10.052;2024-01-30T20:36:05;5.95;;;3.55;;
56519;SDS011;42420;53.586;10.052;2024-01-30T20:41:02;7.05;;;3.70;;
56519;SDS011;42420;53.586;10.052;2024-01-30T20:46:01;6.45;;;3.60;;
56519;SDS011;42420;53.586;10.052;2024-01-30T20:50:57;7.13;;;4.18;;
56519;SDS011;42420;53.586;10.052;2024-01-30T20:55:54;5.95;;;3.78;;
56519;SDS011;42420;53.586;10.052;2024-01-30T21:00:50;5.45;;;3.50;;
56519;SDS011;42420;53.586;10.052;2024-01-30T21:05:48;6.38;;;3.75;;
56519;SDS011;42420;53.586;10.052;2024-01-30T21:10:45;7.95;;;4.47;;
56519;SDS011;42420;53.586;10.052;2024-01-30T21:15:42;5.80;;;2.97;;
56519;SDS011;42420;53.586;10.052;2024-01-30T21:20:39;5.15;;;3.05;;
56519;SDS011;42420;53.586;10.052;2024-01-30T21:25:36;5.63;;;3.65;;
56519;SDS011;42420;53.586;10.052;2024-01-30T21:30:33;5.60;;;3.58;;
56519;SDS011;42420;53.586;10.052;2024-01-30T21:35:31;7.68;;;3.60;;
56519;SDS011;42420;53.586;10.052;2024-01-30T21:40:28;4.18;;;2.38;;
56519;SDS011;42420;53.586;10.052;2024-01-30T21:45:25;4.72;;;2.00;;
56519;SDS011;42420;53.586;10.052;2024-01-30T21:50:21;5.20;;;2.30;;
56519;SDS011;42420;53.586;10.052;2024-01-30T22:00:15;4.18;;;1.75;;
56519;SDS011;42420;53.586;10.052;2024-01-30T22:05:12;3.78;;;1.50;;
56519;SDS011;42420;53.586;10.052;2024-01-30T22:10:11;4.40;;;1.27;;
56519;SDS011;42420;53.586;10.052;2024-01-30T22:15:07;3.95;;;1.13;;
56519;SDS011;42420;53.586;10.052;2024-01-30T22:20:05;3.78;;;1.48;;
56519;SDS011;42420;53.586;10.052;2024-01-30T22:25:03;3.42;;;0.95;;
56519;SDS011;42420;53.586;10.052;2024-01-30T22:30:00;3.33;;;1.15;;
56519;SDS011;42420;53.586;10.052;2024-01-30T22:34:57;6.95;;;1.00;;
56519;SDS011;42420;53.586;10.052;2024-01-30T22:39:56;3.10;;;0.80;;
56519;SDS011;42420;53.586;10.052;2024-01-30T22:44:52;7.50;;;2.72;;
56519;SDS011;42420;53.586;10.052;2024-01-30T22:49:49;13.27;;;6.57;;
56519;SDS011;42420;53.586;10.052;2024-01-30T22:54:47;3.33;;;0.70;;
56519;SDS011;42420;53.586;10.052;2024-01-30T22:59:45;2.78;;;0.70;;
56519;SDS011;42420;53.586;10.052;2024-01-30T23:04:41;6.05;;;1.10;;
56519;SDS011;42420;53.586;10.052;2024-01-30T23:09:39;3.45;;;0.85;;
56519;SDS011;42420;53.586;10.052;2024-01-30T23:14:40;5.75;;;1.05;;
56519;SDS011;42420;53.586;10.052;2024-01-30T23:19:37;6.05;;;1.20;;
56519;SDS011;42420;53.586;10.052;2024-01-30T23:24:34;3.38;;;0.73;;
56519;SDS011;42420;53.586;10.052;2024-01-30T23:29:30;6.40;;;1.55;;
56519;SDS011;42420;53.586;10.052;2024-01-30T23:34:29;5.00;;;0.82;;
56519;SDS011;42420;53.586;10.052;2024-01-30T23:39:26;8.38;;;1.20;;
56519;SDS011;42420;53.586;10.052;2024-01-30T23:44:22;5.65;;;1.25;;
56519;SDS011;42420;53.586;10.052;2024-01-30T23:49:19;4.50;;;0.90;;
56519;SDS011;42420;53.586;10.052;2024-01-30T23:59:12;6.38;;;1.00;;
